EDLW/DTM METAR and TAF weather

Enter ICAO airport designator
Station Type Date Time Source
EDLW METAR 2024/06/16 09:50 UTC NOAA

EDLW 160950Z 19013KT 150V210 9999 FEW017 BKN035 16/10 Q1007


Station Type Date Time Source
EDLW Decoded METAR 2024/06/16 09:50 UTC NOAA

Dortmund / Wickede, Germany (EDLW) 51-31N 007-37E
Jun 16, 2024 - 05:50 AM EDT / 2024.06.16 0950 UTC
Wind: from the S (190 degrees) at 15 MPH (13 KT) (direction variable):0
Visibility: greater than 7 mile(s):0
Sky conditions: mostly cloudy
Temperature: 60 F (16 C)
Dew Point: 50 F (10 C)
Relative Humidity: 67%
Pressure (altimeter): 29.74 in. Hg (1007 hPa)
ob: EDLW 160950Z 19013KT 150V210 9999 FEW017 BKN035 16/10 Q1007
cycle: 10

Station Type Date Time Source
EDLW TAF 2024/06/16 06:27 UTC NOAA